Date,TemperatureHighF,TemperatureAvgF,TemperatureLowF,DewpointHighF,DewpointAvgF,DewpointLowF,HumidityHigh,HumidityAvg,HumidityLow,PressureMaxIn,PressureMinIn,WindSpeedMaxMPH,WindSpeedAvgMPH,GustSpeedMaxMPH,PrecipitationSumIn
2013-4-1,46.0,34.9,28.0,20.0,15.5,13.0,60,45,31,0.00,40.00,13,5,19,0.00
2013-4-2,47.0,34.6,27.0,19.0,14.4,4.0,65,45,24,0.00,40.00,21,8,29,0.00
2013-4-3,43.0,34.8,29.0,26.0,20.2,8.0,81,56,33,0.00,40.00,26,10,36,0.00
2013-4-4,46.0,36.4,30.0,27.0,23.7,21.0,81,61,39,0.00,40.00,26,7,35,0.00
2013-4-5,35.0,28.8,24.0,29.0,25.3,19.0,96,87,67,0.00,40.00,27,14,60,0.00
2013-4-6,32.0,25.9,22.0,26.0,21.0,16.0,92,82,74,0.00,40.00,24,11,68,0.00
2013-4-7,31.0,24.8,21.0,22.0,20.1,16.0,92,82,67,0.00,40.00,23,12,54,0.00
2013-4-8,25.0,20.3,11.0,22.0,17.4,5.0,94,89,78,0.00,40.00,16,8,50,0.00
2013-4-9,25.0,13.8,7.0,7.0,3.8,0.0,86,65,44,0.00,40.00,24,11,48,0.00
2013-4-10,31.0,20.2,10.0,24.0,10.1,-7.0,93,65,42,0.00,40.00,25,8,38,0.00
2013-4-11,35.0,27.1,22.0,25.0,20.2,16.0,95,77,49,0.00,40.00,22,8,35,0.00
2013-4-12,37.0,25.5,15.0,22.0,13.1,3.0,94,64,25,0.00,40.00,14,6,29,0.00
2013-4-13,29.0,22.6,9.0,24.0,16.5,6.0,92,79,54,0.00,40.00,32,17,63,0.00
2013-4-14,24.0,12.3,6.0,18.0,7.7,3.0,87,82,67,0.00,40.00,25,11,41,0.00
2013-4-15,22.0,13.8,9.0,15.0,9.7,4.0,89,84,60,0.00,40.00,16,10,28,0.00
2013-4-16,16.0,10.5,7.0,9.0,5.0,0.0,87,78,65,0.00,40.00,19,9,29,0.00
2013-4-17,21.0,10.5,4.0,7.0,2.0,-4.0,80,69,47,0.00,40.00,18,9,26,0.00
2013-4-18,26.0,13.5,3.0,8.0,0.8,-8.0,69,57,44,0.00,40.00,21,9,35,0.00
2013-4-19,18.0,17.2,17.0,13.0,10.2,6.0,84,74,62,0.00,40.00,12,8,26,0.00
2013-4-20,31.0,26.5,24.0,26.0,23.7,21.0,94,89,80,0.00,40.00,19,10,56,0.00
2013-4-21,34.0,25.5,20.0,23.0,19.2,16.0,93,77,58,0.00,40.00,23,11,47,0.00
2013-4-22,25.0,18.9,7.0,19.0,14.2,3.0,93,82,70,0.00,40.00,18,7,32,0.00
2013-4-23,29.0,13.5,2.0,11.0,2.9,-4.0,82,64,38,0.00,40.00,23,7,29,0.00
2013-4-24,35.0,22.1,11.0,13.0,7.1,0.0,80,54,33,0.00,40.00,23,8,29,0.00
2013-4-25,43.0,30.7,22.0,13.0,7.4,2.0,49,38,23,0.00,40.00,19,9,36,0.00
2013-4-26,46.0,35.6,27.0,17.0,11.5,7.0,46,37,26,0.00,40.00,12,7,26,0.00
2013-4-27,49.0,39.6,32.0,20.0,17.6,11.0,56,42,27,0.00,40.00,22,10,41,0.00
2013-4-28,42.0,36.5,32.0,28.0,17.8,13.0,80,47,36,0.00,40.00,25,12,48,0.00
2013-4-29,35.0,31.5,28.0,24.0,16.7,8.0,71,54,40,0.00,40.00,24,14,52,0.00
2013-4-30,29.0,22.4,17.0,15.0,11.5,7.0,90,64,41,0.00,40.00,21,10,37,0.00